createdAt,value
2022-12-23T00:01:51.767Z,101033.56
2022-12-23T00:04:18.511Z,101030.69
2022-12-23T00:06:49.936Z,101026.69
2022-12-23T00:09:19.118Z,101041.81
2022-12-23T00:11:45.861Z,101040.22
2022-12-23T00:14:20.136Z,101033.72
2022-12-23T00:16:48.729Z,101040.22
2022-12-23T00:19:15.450Z,101022.56
2022-12-23T00:21:44.650Z,101023.44
2022-12-23T00:24:11.802Z,101038.59
2022-12-23T00:26:38.699Z,101048.09
2022-12-23T00:29:05.334Z,101046.00
2022-12-23T00:31:36.654Z,101049.56
2022-12-23T00:34:06.207Z,101044.13
2022-12-23T00:36:32.974Z,101055.16
2022-12-23T00:39:00.440Z,101040.69
2022-12-23T00:41:27.302Z,101033.88
2022-12-23T00:43:54.031Z,101034.47
2022-12-23T00:46:20.699Z,101029.91
2022-12-23T00:48:52.740Z,101013.81
2022-12-23T00:51:22.335Z,101010.59
2022-12-23T00:53:49.001Z,101025.72
2022-12-23T00:56:15.692Z,101026.47
2022-12-23T00:58:45.094Z,101028.94
2022-12-23T01:01:11.727Z,101036.25
2022-12-23T01:03:38.580Z,101043.38
2022-12-23T01:06:08.375Z,101057.41
2022-12-23T01:08:35.139Z,101066.06
2022-12-23T01:11:06.701Z,101083.88
2022-12-23T01:13:33.936Z,101083.03
2022-12-23T01:16:09.343Z,101083.88
2022-12-23T01:18:41.651Z,101081.00
2022-12-23T01:21:10.200Z,101074.78
2022-12-23T01:23:39.426Z,101078.41
2022-12-23T01:26:10.021Z,101074.13
2022-12-23T01:28:36.708Z,101086.31
2022-12-23T01:31:05.536Z,101085.66
2022-12-23T01:33:33.401Z,101089.31
2022-12-23T01:36:07.073Z,101074.56
2022-12-23T01:38:34.972Z,101071.06
2022-12-23T01:41:01.727Z,101070.22
2022-12-23T01:43:49.668Z,101080.00
2022-12-23T01:46:16.648Z,101109.03
2022-12-23T01:48:49.081Z,101101.00
2022-12-23T01:51:26.298Z,101065.38
2022-12-23T01:53:59.575Z,101071.56
2022-12-23T01:56:36.836Z,101097.63
2022-12-23T01:59:07.968Z,101080.19
2022-12-23T02:01:37.299Z,101085.44
2022-12-23T02:04:10.037Z,101071.41
2022-12-23T02:06:48.392Z,101048.13
2022-12-23T02:09:27.002Z,101063.44
2022-12-23T02:12:28.418Z,101061.63
2022-12-23T02:15:05.585Z,101064.19
2022-12-23T02:17:52.484Z,101074.22
2022-12-23T02:20:19.078Z,101065.53
2022-12-23T02:22:59.955Z,101075.28
2022-12-23T02:25:42.635Z,101074.59
2022-12-23T02:28:40.655Z,101070.16
2022-12-23T02:31:10.157Z,101051.66
2022-12-23T02:33:51.499Z,101044.44
2022-12-23T02:36:41.419Z,101039.66
2022-12-23T02:39:22.232Z,101053.00
2022-12-23T02:41:57.486Z,101054.94
2022-12-23T02:45:02.540Z,101049.13
2022-12-23T02:47:36.737Z,101040.78
2022-12-23T02:50:11.762Z,101030.28
2022-12-23T02:52:40.535Z,101029.78
2022-12-23T02:55:15.824Z,101035.94
2022-12-23T02:57:47.816Z,101027.25
2022-12-23T03:00:17.662Z,101013.31
2022-12-23T03:02:46.639Z,101028.41
2022-12-23T03:05:30.928Z,101023.25
2022-12-23T03:08:04.692Z,101022.88
2022-12-23T03:10:54.114Z,101015.88
2022-12-23T03:13:42.685Z,101025.22
2022-12-23T03:16:27.946Z,101012.00
2022-12-23T03:19:22.288Z,100999.34
2022-12-23T03:21:54.942Z,101000.09
2022-12-23T03:24:27.254Z,101008.47
2022-12-23T03:27:12.466Z,101002.06
2022-12-23T03:30:13.166Z,101002.34
2022-12-23T03:33:32.117Z,101001.31
2022-12-23T03:36:03.970Z,101003.03
2022-12-23T03:38:33.540Z,101014.22
2022-12-23T03:41:09.588Z,101005.88
2022-12-23T03:43:48.387Z,101000.53
2022-12-23T03:46:23.912Z,101008.72
2022-12-23T03:49:03.471Z,101016.69
2022-12-23T03:51:56.321Z,101011.25
2022-12-23T03:54:35.877Z,101012.78
2022-12-23T03:57:06.107Z,101000.63
2022-12-23T03:59:36.077Z,101005.25
2022-12-23T04:02:25.222Z,101006.63
2022-12-23T04:05:26.312Z,101015.47
2022-12-23T04:08:14.761Z,101018.25
2022-12-23T04:10:41.639Z,101030.94
2022-12-23T04:13:14.133Z,101024.31
2022-12-23T04:15:47.731Z,101006.75
2022-12-23T04:18:14.429Z,101007.38
2022-12-23T04:20:41.999Z,101021.94
2022-12-23T04:23:09.943Z,101016.06
2022-12-23T04:25:36.900Z,100998.16
2022-12-23T04:28:03.697Z,100994.63
2022-12-23T04:30:34.546Z,101015.03
2022-12-23T04:33:01.799Z,101011.44
2022-12-23T04:35:28.478Z,101005.09
2022-12-23T04:37:55.224Z,101006.75
2022-12-23T04:40:21.822Z,101006.69
2022-12-23T04:42:48.632Z,101009.47
2022-12-23T04:45:15.274Z,101014.84
2022-12-23T04:47:41.925Z,101023.88
2022-12-23T04:50:13.305Z,101021.31
2022-12-23T04:52:40.507Z,101019.38
2022-12-23T04:55:11.383Z,101010.69
2022-12-23T04:57:37.991Z,101013.47
2022-12-23T05:00:05.782Z,101013.81
2022-12-23T05:02:32.519Z,101022.22
2022-12-23T05:04:59.248Z,101018.19
2022-12-23T05:07:26.009Z,101017.50
2022-12-23T05:09:55.838Z,101021.09
2022-12-23T05:12:25.419Z,101030.47
2022-12-23T05:14:52.107Z,101031.38
2022-12-23T05:17:26.904Z,101034.81
2022-12-23T05:19:56.250Z,101042.41
2022-12-23T05:22:22.825Z,101034.69
2022-12-23T05:24:49.428Z,101022.38
2022-12-23T05:27:16.040Z,101011.19
2022-12-23T05:29:42.671Z,101009.00
2022-12-23T05:32:09.415Z,101020.81
2022-12-23T05:34:36.060Z,101016.09
2022-12-23T05:37:02.700Z,101011.88
2022-12-23T05:39:29.541Z,101031.97
2022-12-23T05:41:57.276Z,101040.13
2022-12-23T05:44:23.852Z,101029.97
2022-12-23T05:46:50.488Z,101032.59
2022-12-23T05:49:20.001Z,101042.75
2022-12-23T05:51:46.641Z,101052.88
2022-12-23T05:54:13.329Z,101047.09
2022-12-23T05:56:39.954Z,101046.28
2022-12-23T05:59:07.781Z,101038.13
2022-12-23T06:01:37.512Z,101043.97
2022-12-23T06:04:04.457Z,101044.44
2022-12-23T06:06:31.125Z,101046.03
2022-12-23T06:09:01.268Z,101049.47
2022-12-23T06:11:28.162Z,101057.19
2022-12-23T06:13:59.881Z,101063.28
2022-12-23T06:16:30.397Z,101051.34
2022-12-23T06:18:57.201Z,101073.47
2022-12-23T06:21:23.901Z,101063.91
2022-12-23T06:23:50.507Z,101063.19
2022-12-23T06:26:17.493Z,101064.00
2022-12-23T06:28:44.126Z,101074.50
2022-12-23T06:31:10.869Z,101084.53
2022-12-23T06:33:38.881Z,101079.69
2022-12-23T06:36:06.225Z,101084.34
2022-12-23T06:38:32.851Z,101074.91
2022-12-23T06:40:59.565Z,101063.63
2022-12-23T06:43:26.309Z,101063.63
2022-12-23T06:45:52.943Z,101062.75
2022-12-23T06:48:19.630Z,101070.84
2022-12-23T06:50:46.472Z,101065.34
2022-12-23T06:53:13.462Z,101071.97
2022-12-23T06:55:40.246Z,101072.88
2022-12-23T06:58:06.826Z,101070.94
2022-12-23T07:00:36.334Z,101080.53
2022-12-23T07:03:05.926Z,101086.72
2022-12-23T07:05:37.241Z,101072.88
2022-12-23T07:08:04.648Z,101066.81
2022-12-23T07:10:31.251Z,101070.94
2022-12-23T07:12:57.842Z,101078.00
2022-12-23T07:15:27.110Z,101082.78
2022-12-23T07:18:01.890Z,101073.94
2022-12-23T07:20:28.675Z,101071.47
2022-12-23T07:22:56.044Z,101076.19
2022-12-23T07:25:23.411Z,101072.50
2022-12-23T07:27:56.013Z,101075.59
2022-12-23T07:30:23.265Z,101076.00
2022-12-23T07:32:54.477Z,101078.50
2022-12-23T07:35:22.406Z,101085.34
2022-12-23T07:37:59.114Z,101089.22
2022-12-23T07:40:28.434Z,101080.00
2022-12-23T07:42:57.303Z,101079.31
2022-12-23T07:45:27.446Z,101081.84
2022-12-23T07:47:55.062Z,101082.91
2022-12-23T07:50:22.238Z,101081.25
2022-12-23T07:52:48.938Z,101089.53
2022-12-23T07:55:17.073Z,101095.47
2022-12-23T07:57:45.641Z,101091.41
2022-12-23T08:00:12.583Z,101086.63
2022-12-23T08:02:39.344Z,101085.19
2022-12-23T08:05:07.828Z,101100.75
2022-12-23T08:07:34.545Z,101102.31
2022-12-23T08:10:01.347Z,101104.94
2022-12-23T08:12:27.998Z,101095.78
2022-12-23T08:14:55.880Z,101114.09
2022-12-23T08:17:26.695Z,101117.25
2022-12-23T08:19:53.358Z,101125.69
2022-12-23T08:22:19.932Z,101120.38
2022-12-23T08:24:46.545Z,101112.34
2022-12-23T08:27:13.121Z,101114.00
2022-12-23T08:29:40.304Z,101116.84
2022-12-23T08:32:07.476Z,101123.75
2022-12-23T08:34:34.598Z,101120.16
2022-12-23T08:37:01.578Z,101103.72
2022-12-23T08:39:28.451Z,101104.03
2022-12-23T08:41:58.009Z,101103.22
2022-12-23T08:44:24.686Z,101103.97
2022-12-23T08:46:51.444Z,101106.75
2022-12-23T08:49:21.453Z,101111.16
2022-12-23T08:51:48.083Z,101107.41
2022-12-23T08:54:15.210Z,101116.94
2022-12-23T08:56:45.200Z,101115.59
2022-12-23T08:59:19.129Z,101117.38
2022-12-23T09:01:49.724Z,101115.69
2022-12-23T09:04:17.851Z,101104.47
2022-12-23T09:06:44.993Z,101103.56
2022-12-23T09:09:13.775Z,101098.19
2022-12-23T09:11:40.424Z,101103.03
2022-12-23T09:14:07.251Z,101101.78
2022-12-23T09:16:34.134Z,101098.53
2022-12-23T09:19:02.274Z,101099.53
2022-12-23T09:21:30.720Z,101110.53
2022-12-23T09:23:57.472Z,101112.50
2022-12-23T09:26:29.657Z,101105.78
2022-12-23T09:28:57.533Z,101103.56
2022-12-23T09:31:34.317Z,101110.63
2022-12-23T09:34:05.323Z,101113.31
2022-12-23T09:36:32.259Z,101112.06
2022-12-23T09:39:02.495Z,101114.47
2022-12-23T09:42:06.740Z,101110.94
2022-12-23T09:44:44.971Z,101101.28
2022-12-23T09:47:24.081Z,101096.84
2022-12-23T09:49:54.785Z,101093.41
2022-12-23T09:52:33.515Z,101103.34
2022-12-23T09:55:00.215Z,101099.38
2022-12-23T09:57:36.559Z,101109.22
2022-12-23T10:00:22.800Z,101093.06
2022-12-23T10:03:11.385Z,101091.00
2022-12-23T10:06:13.110Z,101097.97
2022-12-23T10:08:44.997Z,101098.72
2022-12-23T10:11:26.845Z,101084.44
2022-12-23T10:14:00.098Z,101089.72
2022-12-23T10:16:34.777Z,101099.41
2022-12-23T10:19:14.582Z,101100.28
2022-12-23T10:21:48.223Z,101097.53
2022-12-23T10:24:24.901Z,101098.72
2022-12-23T10:26:57.376Z,101104.66
2022-12-23T10:29:28.100Z,101096.31
2022-12-23T10:32:19.425Z,101091.78
2022-12-23T10:35:06.641Z,101091.78
2022-12-23T10:37:52.087Z,101085.38
2022-12-23T10:40:44.477Z,101092.25
2022-12-23T10:43:43.423Z,101079.44
2022-12-23T10:46:28.055Z,101088.81
2022-12-23T10:49:18.143Z,101090.63
2022-12-23T10:51:55.117Z,101089.28
2022-12-23T10:54:32.206Z,101085.84
2022-12-23T10:56:59.231Z,101083.25
2022-12-23T10:59:31.181Z,101073.94
2022-12-23T11:02:36.329Z,101078.97
2022-12-23T11:05:16.012Z,101081.38
2022-12-23T11:07:49.146Z,101088.97
2022-12-23T11:10:22.184Z,101086.47
2022-12-23T11:12:51.701Z,101080.47
2022-12-23T11:15:29.007Z,101081.25
2022-12-23T11:18:15.996Z,101090.97
2022-12-23T11:20:45.806Z,101095.78
2022-12-23T11:23:27.117Z,101080.09
2022-12-23T11:26:20.733Z,101082.25
2022-12-23T11:29:06.687Z,101082.63
2022-12-23T11:31:35.483Z,101094.00
2022-12-23T11:34:18.494Z,101094.81
2022-12-23T11:37:07.749Z,101105.97
2022-12-23T11:39:37.587Z,101098.28
2022-12-23T11:42:15.770Z,101090.19
2022-12-23T11:44:51.222Z,101094.31
2022-12-23T11:47:40.234Z,101095.97
2022-12-23T11:50:47.957Z,101082.16
2022-12-23T11:53:31.468Z,101078.56
2022-12-23T11:56:20.123Z,101079.09
2022-12-23T11:59:02.949Z,101092.06
2022-12-23T12:01:35.281Z,101078.84
2022-12-23T12:04:13.501Z,101056.75
2022-12-23T12:06:56.006Z,101042.25
2022-12-23T12:09:28.993Z,101034.16
2022-12-23T12:12:14.861Z,101022.34
2022-12-23T12:14:45.209Z,101012.63
2022-12-23T12:17:20.569Z,101004.41
2022-12-23T12:19:56.619Z,100991.59
2022-12-23T12:22:33.595Z,100989.94
2022-12-23T12:25:06.223Z,100992.72
2022-12-23T12:27:38.393Z,100989.59
2022-12-23T12:30:13.907Z,100993.84
2022-12-23T12:33:03.783Z,101022.66
2022-12-23T12:35:53.733Z,101025.78
2022-12-23T12:38:33.772Z,101024.66
2022-12-23T12:41:21.468Z,101037.38
2022-12-23T12:44:18.985Z,101041.13
2022-12-23T12:47:28.005Z,101026.97
2022-12-23T12:50:04.906Z,101010.66
2022-12-23T12:52:39.822Z,101005.44
2022-12-23T12:55:22.743Z,101006.63
2022-12-23T12:57:49.482Z,101015.91
2022-12-23T13:00:21.587Z,101015.91
2022-12-23T13:03:00.225Z,101018.25
2022-12-23T13:05:39.392Z,101023.22
2022-12-23T13:08:15.441Z,101007.56
2022-12-23T13:10:54.564Z,100995.38
2022-12-23T13:13:48.578Z,100976.94
2022-12-23T13:16:27.340Z,100971.16
2022-12-23T13:18:56.675Z,100981.97
2022-12-23T13:21:42.158Z,100975.50
2022-12-23T13:24:20.123Z,100977.81
2022-12-23T13:27:13.907Z,100993.81
2022-12-23T13:30:12.542Z,100988.47
2022-12-23T13:33:06.991Z,100972.84
2022-12-23T13:36:11.772Z,100973.44
2022-12-23T13:38:53.520Z,100974.09
2022-12-23T13:41:26.529Z,100975.25
2022-12-23T13:44:10.322Z,100985.91
2022-12-23T13:47:18.027Z,100983.56
2022-12-23T13:49:54.380Z,100985.13
2022-12-23T13:52:27.564Z,100977.22
2022-12-23T13:55:52.914Z,100980.03
2022-12-23T13:58:25.990Z,100991.75
2022-12-23T14:00:58.569Z,100990.41
2022-12-23T14:03:39.045Z,100993.88
2022-12-23T14:06:46.725Z,101014.63
2022-12-23T14:09:16.405Z,101006.44
2022-12-23T14:11:48.308Z,100997.31
2022-12-23T14:14:22.671Z,100986.19
2022-12-23T14:17:33.256Z,100994.00
2022-12-23T14:20:36.889Z,101006.56
2022-12-23T14:23:59.517Z,100997.97
2022-12-23T14:27:04.681Z,100999.91
2022-12-23T14:29:56.380Z,101010.56
2022-12-23T14:32:36.249Z,101010.59
2022-12-23T14:35:16.384Z,101017.50
2022-12-23T14:37:47.779Z,101016.88
2022-12-23T14:40:40.632Z,101018.31
2022-12-23T14:43:23.401Z,101014.28
2022-12-23T14:45:51.050Z,101004.31
2022-12-23T14:49:16.249Z,101001.53
2022-12-23T14:51:44.621Z,101011.31
2022-12-23T14:54:16.858Z,101008.66
2022-12-23T14:56:46.476Z,101003.72
2022-12-23T14:59:40.943Z,101014.03
2022-12-23T15:02:42.855Z,101015.56
2022-12-23T15:05:15.166Z,101021.16
2022-12-23T15:07:48.411Z,101021.84
2022-12-23T15:10:22.214Z,101011.00
2022-12-23T15:13:03.978Z,101000.28
2022-12-23T15:15:32.278Z,100995.00
2022-12-23T15:18:15.885Z,100993.88
2022-12-23T15:20:42.550Z,100996.50
2022-12-23T15:23:17.339Z,100999.28
2022-12-23T15:25:56.700Z,100998.97
2022-12-23T15:28:32.423Z,101002.75
2022-12-23T15:31:01.139Z,101004.41
2022-12-23T15:36:32.850Z,101008.53
2022-12-23T15:39:08.158Z,101006.88
2022-12-23T15:41:47.930Z,101012.66
2022-12-23T15:44:21.879Z,101007.03
2022-12-23T15:46:50.542Z,101004.09
2022-12-23T15:49:26.741Z,100999.31
2022-12-23T15:52:07.837Z,100988.13
2022-12-23T15:54:59.564Z,100977.41
2022-12-23T15:57:32.471Z,100975.94
2022-12-23T16:00:19.996Z,100969.84
2022-12-23T16:03:00.249Z,100975.78
2022-12-23T16:05:39.198Z,100981.69
2022-12-23T16:08:12.194Z,100985.00
2022-12-23T16:10:40.265Z,100982.50
2022-12-23T16:13:33.791Z,100974.47
2022-12-23T16:16:19.000Z,100966.69
2022-12-23T16:18:47.861Z,100972.13
2022-12-23T16:21:15.908Z,100972.50
2022-12-23T16:23:53.877Z,100984.16
2022-12-23T16:26:31.655Z,100983.34
2022-12-23T16:29:13.148Z,100972.63
2022-12-23T16:32:08.132Z,100972.63
2022-12-23T16:34:47.445Z,100958.66
2022-12-23T16:37:15.498Z,100958.16
2022-12-23T16:39:49.544Z,100951.44
2022-12-23T16:42:26.654Z,100950.06
2022-12-23T16:45:01.445Z,100948.41
2022-12-23T16:47:29.612Z,100941.56
2022-12-23T16:50:03.298Z,100933.81
2022-12-23T16:52:38.393Z,100938.25
2022-12-23T16:55:17.226Z,100940.41
2022-12-23T16:57:44.956Z,100942.97
2022-12-23T17:00:32.360Z,100951.75
2022-12-23T17:03:01.921Z,100968.47
2022-12-23T17:05:34.002Z,100978.19
2022-12-23T17:08:11.721Z,100975.09
2022-12-23T17:10:45.073Z,100994.16
2022-12-23T17:13:18.567Z,100995.66
2022-12-23T17:15:45.925Z,101001.28
2022-12-23T17:18:15.718Z,100983.00
2022-12-23T17:20:53.969Z,100989.91
2022-12-23T17:23:33.285Z,100994.38
2022-12-23T17:25:59.907Z,100991.22
2022-12-23T17:28:36.215Z,101006.88
2022-12-23T17:31:14.348Z,101021.69
2022-12-23T17:33:45.232Z,101015.63
2022-12-23T17:36:12.377Z,101011.34
2022-12-23T17:38:41.853Z,100992.91
2022-12-23T17:41:30.426Z,100993.06
2022-12-23T17:43:58.080Z,100988.28
2022-12-23T17:46:29.690Z,100994.53
2022-12-23T17:48:56.550Z,101005.91
2022-12-23T17:51:23.773Z,101004.09
2022-12-23T17:53:57.813Z,101011.97
2022-12-23T17:56:26.874Z,101013.94
2022-12-23T17:58:56.317Z,101018.72
2022-12-23T18:01:32.557Z,101021.03
2022-12-23T18:04:03.213Z,101027.63
2022-12-23T18:06:29.913Z,101011.97
2022-12-23T18:09:04.015Z,100994.69
2022-12-23T18:11:40.376Z,100987.78
2022-12-23T18:14:13.855Z,100986.97
2022-12-23T18:16:46.372Z,100990.25
2022-12-23T18:19:23.047Z,101013.47
2022-12-23T18:21:51.383Z,101022.03
2022-12-23T18:24:19.579Z,101032.56
2022-12-23T18:26:49.243Z,101025.19
2022-12-23T18:29:16.030Z,101036.69
2022-12-23T18:31:51.689Z,101038.81
2022-12-23T18:34:28.674Z,101041.81
2022-12-23T18:36:56.219Z,101052.81
2022-12-23T18:39:48.730Z,101065.31
2022-12-23T18:42:20.903Z,101052.81
2022-12-23T18:44:55.769Z,101037.69
2022-12-23T18:47:37.479Z,101015.63
2022-12-23T18:50:08.318Z,101009.38
2022-12-23T18:52:38.919Z,101004.56
2022-12-23T18:55:13.050Z,101015.75
2022-12-23T18:57:42.967Z,101020.53
2022-12-23T19:00:29.712Z,101032.53
2022-12-23T19:02:57.142Z,101021.19
2022-12-23T19:05:29.238Z,101014.47
2022-12-23T19:07:57.147Z,101013.28
2022-12-23T19:10:30.687Z,101007.69
2022-12-23T19:12:57.234Z,100983.00
2022-12-23T19:15:27.317Z,100986.47
2022-12-23T19:17:59.743Z,100997.16
2022-12-23T19:20:26.811Z,101013.28
2022-12-23T19:22:53.528Z,101023.66
2022-12-23T19:25:21.157Z,101023.00
2022-12-23T19:27:51.563Z,101014.47
2022-12-23T19:30:19.643Z,101009.66
2022-12-23T19:32:47.790Z,101011.00
2022-12-23T19:35:15.424Z,100989.25
2022-12-23T19:37:42.878Z,100998.00
2022-12-23T19:40:10.894Z,100998.16
2022-12-23T19:42:40.786Z,100989.94
2022-12-23T19:45:12.183Z,100969.53
2022-12-23T19:47:39.263Z,100974.44
2022-12-23T19:50:07.129Z,100960.47
2022-12-23T19:52:34.104Z,100945.34
2022-12-23T19:55:00.828Z,100957.34
2022-12-23T19:57:30.243Z,100965.25
2022-12-23T19:59:56.964Z,100963.91
2022-12-23T20:02:23.604Z,100969.84
2022-12-23T20:04:50.208Z,100978.56
2022-12-23T20:07:19.512Z,100969.34
2022-12-23T20:09:46.288Z,100971.16
2022-12-23T20:12:13.091Z,100981.69
2022-12-23T20:14:43.917Z,100990.59
2022-12-23T20:17:14.445Z,100999.47
2022-12-23T20:19:52.492Z,101010.63
2022-12-23T20:22:19.216Z,101019.72
2022-12-23T20:24:46.945Z,101016.25
2022-12-23T20:27:16.103Z,101005.06
2022-12-23T20:29:43.388Z,101010.31
2022-12-23T20:32:10.561Z,101018.06
2022-12-23T20:34:40.049Z,101021.53
2022-12-23T20:37:07.673Z,101040.13
2022-12-23T20:39:35.689Z,101059.69
2022-12-23T20:42:02.861Z,101066.63
2022-12-23T20:44:39.890Z,101073.84
2022-12-23T20:47:06.881Z,101082.22
2022-12-23T20:49:39.556Z,101068.91
2022-12-23T20:52:12.227Z,101054.25
2022-12-23T20:54:38.868Z,101057.03
2022-12-23T20:57:07.284Z,101057.72
2022-12-23T20:59:33.941Z,101045.53
2022-12-23T21:02:01.109Z,101042.25
2022-12-23T21:04:36.352Z,101042.91
2022-12-23T21:07:12.119Z,101059.06
2022-12-23T21:09:41.511Z,101042.09
2022-12-23T21:12:08.446Z,101041.28
2022-12-23T21:14:37.994Z,101052.47
2022-12-23T21:17:05.534Z,101054.16
2022-12-23T21:19:32.248Z,101051.50
2022-12-23T21:22:00.892Z,101069.94
2022-12-23T21:24:28.090Z,101084.22
2022-12-23T21:26:58.376Z,101083.44
2022-12-23T21:29:29.953Z,101071.25
2022-12-23T21:32:05.935Z,101059.06
2022-12-23T21:34:32.660Z,101072.59
2022-12-23T21:37:02.528Z,101084.44
2022-12-23T21:39:35.785Z,101090.00
2022-12-23T21:42:03.781Z,101097.38
2022-12-23T21:44:32.223Z,101114.19
2022-12-23T21:47:01.854Z,101130.63
2022-12-23T21:49:31.780Z,101150.38
2022-12-23T21:52:01.447Z,101165.78
2022-12-23T21:54:33.007Z,101160.81
2022-12-23T21:56:59.691Z,101136.59
2022-12-23T21:59:31.121Z,101114.06
2022-12-23T22:02:01.350Z,101110.47
2022-12-23T22:04:32.607Z,101104.88
2022-12-23T22:06:59.362Z,101114.34
2022-12-23T22:09:27.292Z,101122.25
2022-12-23T22:11:56.487Z,101133.72
2022-12-23T22:14:23.119Z,101142.00
2022-12-23T22:16:49.840Z,101136.56
2022-12-23T22:19:19.989Z,101131.13
2022-12-23T22:21:46.562Z,101129.34
2022-12-23T22:24:13.174Z,101129.88
2022-12-23T22:26:42.989Z,101116.19
2022-12-23T22:29:10.963Z,101088.63
2022-12-23T22:31:49.092Z,101071.97
2022-12-23T22:34:18.874Z,101083.53
2022-12-23T22:36:48.573Z,101067.22
2022-12-23T22:39:21.013Z,101041.84
2022-12-23T22:41:51.936Z,101029.03
2022-12-23T22:44:19.551Z,101027.41
2022-12-23T22:46:46.650Z,101030.66
2022-12-23T22:49:14.373Z,101028.22
2022-12-23T22:51:44.642Z,101012.25
2022-12-23T22:54:11.350Z,101020.50
2022-12-23T22:56:38.117Z,101024.59
2022-12-23T22:59:05.016Z,101035.47
2022-12-23T23:01:36.340Z,101037.56
2022-12-23T23:04:04.018Z,101032.66
2022-12-23T23:06:36.620Z,101031.66
2022-12-23T23:09:05.019Z,101047.13
2022-12-23T23:11:31.616Z,101056.66
2022-12-23T23:13:58.740Z,101058.63
2022-12-23T23:16:25.816Z,101051.44
2022-12-23T23:18:53.564Z,101020.03
2022-12-23T23:21:25.423Z,100993.88
2022-12-23T23:23:58.530Z,100999.78
2022-12-23T23:26:27.775Z,100990.56
2022-12-23T23:28:57.677Z,100975.78
2022-12-23T23:31:45.551Z,100967.22
2022-12-23T23:34:13.459Z,100969.16
2022-12-23T23:36:45.499Z,100984.94
2022-12-23T23:39:12.272Z,100989.56
2022-12-23T23:41:45.907Z,100963.72
2022-12-23T23:44:15.410Z,100932.97
2022-12-23T23:46:46.288Z,100917.19
2022-12-23T23:49:15.694Z,100893.34
2022-12-23T23:51:42.364Z,100902.22
2022-12-23T23:54:12.073Z,100903.56
2022-12-23T23:56:39.614Z,100908.00
2022-12-23T23:59:11.653Z,100918.53
